LFPB/LBG METAR and TAF weather

Enter ICAO airport designator
Station Type Date Time Source
LFPB METAR 2022/01/28 00:30 UTC NOAA

LFPB 280030Z AUTO VRB02KT 3900 BR OVC004 07/07 Q1034 TEMPO 0800 FG VV///


Station Type Date Time Source
LFPB Decoded METAR 2022/01/28 00:30 UTC NOAA

Paris / Le Bourget, France (LFPB) 48-58N 002-27E 65M
Jan 27, 2022 - 07:30 PM EST / 2022.01.28 0030 UTC
Wind: Variable at 2 MPH (2 KT):0
Visibility: 2 mile(s):0
Sky conditions: overcast
Weather: mist
Temperature: 44 F (7 C)
Dew Point: 44 F (7 C)
Relative Humidity: 100%
Pressure (altimeter): 30.53 in. Hg (1034 hPa)
ob: LFPB 280030Z AUTO VRB02KT 3900 BR OVC004 07/07 Q1034 TEMPO 0800 FG VV///
cycle: 0

Station Type Date Time Source
LFPB TAF 2022/01/27 18:51 UTC NOAA

TAF
AMD LFPB 271841Z 2718/2818 23013KT 4000 BR BKN005
TEMPO 2723/2810 VRB03KT 0900 FG OVC002
BECMG 2810/2812 8000 NSW BKN010
BECMG 2814/2816 BKN017

Example: see airport list